Time;durP1;ratioP1;P1;durP2;ratioP2;P2;SDS_P1;SDS_P2;PMS_P1;PMS_P2;Temp;Humidity;BMP_temperature;BMP_pressure;BME280_temperature;BME280_humidity;BME280_pressure;Samples;Min_cycle;Max_cycle;Signal;HPM_P1;HPM_P2
2021/05/03 00:01:56;;;;;;;14.07;4.60;;;;;;;13.07;100.00;100254.43;1667782;85;21852;-83
2021/05/03 00:04:22;;;;;;;10.55;4.08;;;;;;;13.05;100.00;100256.60;1639391;87;21068;-82
2021/05/03 00:06:48;;;;;;;19.48;5.05;;;;;;;13.04;100.00;100257.70;1668024;85;21040;-83
2021/05/03 00:09:14;;;;;;;18.95;4.80;;;;;;;13.00;100.00;100253.13;1667957;86;20922;-83
2021/05/03 00:11:40;;;;;;;17.77;4.70;;;;;;;12.96;100.00;100257.77;1639501;86;21162;-83
2021/05/03 00:14:06;;;;;;;16.97;5.17;;;;;;;12.96;100.00;100260.47;1667843;86;21263;-83
2021/05/03 00:16:32;;;;;;;18.55;5.25;;;;;;;12.95;100.00;100263.47;1667843;85;21070;-83
2021/05/03 00:18:59;;;;;;;17.00;5.53;;;;;;;12.97;100.00;100265.36;1616811;87;21209;-83
2021/05/03 00:21:24;;;;;;;15.13;5.00;;;;;;;12.99;100.00;100267.20;1668029;86;21092;-83
2021/05/03 00:23:50;;;;;;;21.87;5.35;;;;;;;13.03;100.00;100247.16;1667941;86;21720;-83
2021/05/03 00:26:16;;;;;;;14.10;4.83;;;;;;;13.04;100.00;100242.83;1639445;87;21111;-83
2021/05/03 00:28:43;;;;;;;17.67;5.28;;;;;;;12.96;100.00;100228.01;1667841;86;21188;-83
2021/05/03 00:31:09;;;;;;;15.65;5.78;;;;;;;12.93;100.00;100232.63;1667843;86;21198;-82
2021/05/03 00:33:35;;;;;;;11.60;4.80;;;;;;;12.89;100.00;100230.25;1639290;87;21629;-83
2021/05/03 00:36:01;;;;;;;16.73;5.15;;;;;;;12.84;100.00;100252.47;1667977;85;21151;-83
2021/05/03 00:38:28;;;;;;;16.67;5.65;;;;;;;12.81;100.00;100255.74;1668027;85;21842;-83
2021/05/03 00:40:53;;;;;;;19.37;6.00;;;;;;;12.74;100.00;100254.72;1642726;86;21667;-83
2021/05/03 00:43:21;;;;;;;15.93;5.35;;;;;;;12.75;100.00;100252.27;1698840;84;21051;-82
2021/05/03 00:45:49;;;;;;;16.42;5.40;;;;;;;12.76;100.00;100247.11;1677006;85;21184;-82
2021/05/03 00:48:16;;;;;;;18.62;5.47;;;;;;;12.79;100.00;100243.84;1641357;87;21538;-82
2021/05/03 00:50:43;;;;;;;16.97;5.30;;;;;;;12.72;100.00;100241.47;1641291;87;21982;-83
2021/05/03 00:53:10;;;;;;;19.75;6.22;;;;;;;12.68;100.00;100245.84;1655176;85;21051;-83
2021/05/03 00:55:36;;;;;;;14.95;5.55;;;;;;;12.66;100.00;100245.85;1641483;87;21613;-83
2021/05/03 00:58:05;;;;;;;20.88;5.60;;;;;;;12.61;100.00;100250.73;1641446;86;21172;-83
2021/05/03 01:00:32;;;;;;;18.80;6.17;;;;;;;12.59;100.00;100257.52;1655248;86;21169;-82
2021/05/03 01:02:59;;;;;;;15.18;6.20;;;;;;;12.56;100.00;100258.08;1641500;87;21924;-83
2021/05/03 01:05:29;;;;;;;21.82;5.37;;;;;;;12.52;100.00;100263.24;1655132;86;21197;-83
2021/05/03 01:07:58;;;;;;;14.85;5.62;;;;;;;12.50;100.00;100265.44;1641443;86;21615;-83
2021/05/03 01:10:25;;;;;;;20.10;6.42;;;;;;;12.47;100.00;100264.62;1554754;92;21315;-83
2021/05/03 01:12:52;;;;;;;23.15;6.60;;;;;;;12.53;100.00;100272.16;1554869;92;21521;-83
2021/05/03 01:15:24;;;;;;;14.65;6.05;;;;;;;12.49;100.00;100274.62;1554837;92;22071;-83
2021/05/03 01:17:57;;;;;;;18.07;6.33;;;;;;;12.45;100.00;100280.33;1554699;92;21262;-83
2021/05/03 01:20:27;;;;;;;16.85;5.53;;;;;;;12.43;100.00;100270.33;1584426;90;21181;-83
2021/05/03 01:22:56;;;;;;;18.17;5.75;;;;;;;12.33;100.00;100277.16;1534473;93;21644;-83
2021/05/03 01:25:30;;;;;;;23.52;6.97;;;;;;;12.28;100.00;100277.98;1506937;95;21285;-83
2021/05/03 01:27:56;;;;;;;;;;;;;;;12.30;100.00;100272.31;1509294;95;21258;-83
2021/05/03 01:30:44;;;;;;;19.75;6.60;;;;;;;12.29;100.00;100271.48;1534583;93;20254;-83
2021/05/03 01:33:12;;;;;;;15.15;6.35;;;;;;;12.25;100.00;100276.65;1534674;93;21494;-83
2021/05/03 01:35:39;;;;;;;20.75;6.37;;;;;;;12.25;100.00;100279.90;1534522;93;21805;-83
2021/05/03 01:38:07;;;;;;;16.27;6.30;;;;;;;12.20;100.00;100275.31;1506916;95;21266;-83
2021/05/03 01:40:37;;;;;;;24.85;7.12;;;;;;;12.17;100.00;100263.72;1508309;94;21317;-83
2021/05/03 01:43:13;;;;;;;19.87;7.35;;;;;;;12.18;100.00;100263.20;1517353;94;21311;-83
2021/05/03 01:45:40;;;;;;;26.35;7.05;;;;;;;12.20;100.00;100277.21;1497094;95;21295;-83
2021/05/03 01:48:09;;;;;;;23.85;7.45;;;;;;;12.10;100.00;100269.17;1500254;95;21243;-83
2021/05/03 01:50:37;;;;;;;19.62;7.22;;;;;;;12.04;100.00;100271.09;1498699;94;21273;-83
2021/05/03 01:53:06;;;;;;;21.23;6.95;;;;;;;12.01;100.00;100271.64;1499983;94;21270;-83
2021/05/03 01:55:34;;;;;;;24.47;8.40;;;;;;;11.99;100.00;100275.95;1498711;95;21771;-83
2021/05/03 01:58:04;;;;;;;23.32;7.75;;;;;;;11.97;100.00;100275.97;1535543;93;21226;-83
2021/05/03 02:00:30;;;;;;;23.50;7.95;;;;;;;11.96;100.00;100266.26;1475525;97;21150;-83
2021/05/03 02:02:56;;;;;;;19.42;7.78;;;;;;;12.01;100.00;100279.20;1475743;96;21335;-83
2021/05/03 02:05:25;;;;;;;25.52;8.95;;;;;;;12.03;100.00;100272.19;1475764;97;21311;-83
2021/05/03 02:08:04;;;;;;;25.62;7.62;;;;;;;12.05;100.00;100280.25;1475747;96;21087;-83
2021/05/03 02:10:32;;;;;;;25.30;8.25;;;;;;;12.08;100.00;100276.19;1475810;97;21264;-83
2021/05/03 02:13:00;;;;;;;28.02;8.43;;;;;;;12.10;100.00;100271.33;1479287;95;21233;-83
2021/05/03 02:15:29;;;;;;;19.57;8.33;;;;;;;12.14;100.00;100267.52;1499589;95;21275;-83
2021/05/03 02:17:55;;;;;;;25.15;8.98;;;;;;;12.18;100.00;100272.11;1499655;95;21280;-83
2021/05/03 02:20:21;;;;;;;31.87;9.50;;;;;;;12.18;100.00;100268.05;1516252;94;21006;-83
2021/05/03 02:22:47;;;;;;;28.12;8.68;;;;;;;12.22;100.00;100262.89;1523353;94;21246;-83
2021/05/03 02:25:14;;;;;;;21.77;8.35;;;;;;;12.31;100.00;100266.63;1523346;94;21193;-82
2021/05/03 02:27:41;;;;;;;28.27;8.15;;;;;;;12.37;100.00;100261.45;1523241;94;21197;-83
2021/05/03 02:30:09;;;;;;;23.35;8.23;;;;;;;12.40;100.00;100265.48;1504387;94;21260;-82
2021/05/03 02:32:39;;;;;;;25.72;8.10;;;;;;;12.48;100.00;100257.59;1523247;94;21301;-83
2021/05/03 02:35:09;;;;;;;31.82;8.60;;;;;;;12.47;100.00;100274.91;1529546;92;21245;-83
2021/05/03 02:37:36;;;;;;;24.02;8.10;;;;;;;12.51;100.00;100283.27;1535848;92;21186;-83
2021/05/03 02:40:04;;;;;;;25.60;8.08;;;;;;;12.62;100.00;100278.05;1522896;93;21251;-83
2021/05/03 02:42:30;;;;;;;26.20;7.90;;;;;;;12.71;100.00;100268.80;1531459;92;21273;-83
2021/05/03 02:44:56;;;;;;;20.08;7.87;;;;;;;12.78;100.00;100263.87;1512655;94;21230;-83
2021/05/03 02:47:22;;;;;;;30.00;7.40;;;;;;;12.89;100.00;100265.95;1527473;93;21590;-83
2021/05/03 02:49:49;;;;;;;24.23;7.83;;;;;;;13.09;100.00;100264.43;1527472;93;21227;-83
2021/05/03 02:52:15;;;;;;;28.47;7.55;;;;;;;13.26;100.00;100258.59;1512702;94;21218;-83
2021/05/03 02:54:41;;;;;;;23.22;7.53;;;;;;;13.42;100.00;100258.47;1535947;91;22033;-83
2021/05/03 02:57:07;;;;;;;22.22;7.80;;;;;;;13.55;100.00;100249.64;1577822;86;20953;-83
2021/05/03 02:59:32;;;;;;;22.73;7.60;;;;;;;13.71;100.00;100258.42;1624499;87;21061;-83
2021/05/03 03:01:58;;;;;;;25.25;7.55;;;;;;;13.86;100.00;100255.52;1624512;87;21121;-83
2021/05/03 03:04:24;;;;;;;21.52;7.00;;;;;;;14.03;100.00;100257.20;1624533;86;21154;-83
2021/05/03 03:06:50;;;;;;;25.00;7.05;;;;;;;14.16;100.00;100254.86;1624394;87;21223;-83
2021/05/03 03:09:16;;;;;;;20.68;6.22;;;;;;;14.32;100.00;100257.59;1624203;88;21056;-83
2021/05/03 03:11:46;;;;;;;25.00;6.12;;;;;;;14.44;100.00;100244.95;1624523;87;21049;-83
2021/05/03 03:14:10;;;;;;;28.10;7.33;;;;;;;14.54;100.00;100252.42;1624352;88;21631;-83
2021/05/03 03:16:36;;;;;;;22.90;7.42;;;;;;;14.71;100.00;100253.27;1624523;87;21055;-84
2021/05/03 03:19:02;;;;;;;30.05;7.22;;;;;;;14.84;100.00;100254.40;1624501;86;21269;-83
2021/05/03 03:21:28;;;;;;;23.62;6.47;;;;;;;14.89;100.00;100255.68;1624503;88;21522;-83
2021/05/03 03:23:53;;;;;;;15.55;6.17;;;;;;;14.97;100.00;100259.60;1624419;86;21072;-83
2021/05/03 03:26:20;;;;;;;23.07;7.10;;;;;;;15.04;100.00;100260.05;1624519;88;21056;-83
2021/05/03 03:28:46;;;;;;;21.33;6.83;;;;;;;14.96;100.00;100260.16;1624496;86;21616;-83
2021/05/03 03:31:12;;;;;;;14.15;6.47;;;;;;;15.19;100.00;100253.54;1624440;87;21235;-83
2021/05/03 03:33:38;;;;;;;24.02;7.40;;;;;;;15.11;100.00;100256.38;1624323;87;21738;-83
2021/05/03 03:36:05;;;;;;;20.27;5.83;;;;;;;15.21;100.00;100254.86;1624423;87;21183;-83
2021/05/03 03:38:32;;;;;;;17.32;6.05;;;;;;;15.45;100.00;100253.87;1624321;87;21227;-83
2021/05/03 03:40:58;;;;;;;21.02;6.95;;;;;;;15.45;100.00;100253.87;1632922;86;21506;-83
2021/05/03 03:43:24;;;;;;;22.22;6.47;;;;;;;15.34;100.00;100259.24;1668070;86;21252;-83
2021/05/03 03:45:50;;;;;;;23.05;6.83;;;;;;;15.42;100.00;100260.71;1667988;86;20969;-83
2021/05/03 03:48:16;;;;;;;20.65;6.35;;;;;;;15.65;100.00;100260.84;1668094;85;21696;-83
2021/05/03 03:50:42;;;;;;;21.97;6.37;;;;;;;15.63;100.00;100254.89;1668085;86;21012;-84
2021/05/03 03:53:08;;;;;;;23.95;6.58;;;;;;;15.74;100.00;100256.33;1667903;85;21703;-84
2021/05/03 03:55:35;;;;;;;22.67;6.30;;;;;;;15.98;100.00;100256.67;1667949;85;21267;-84
2021/05/03 03:58:01;;;;;;;17.70;6.00;;;;;;;16.21;100.00;100256.18;1667345;85;21167;-83
2021/05/03 04:00:27;;;;;;;18.60;6.40;;;;;;;16.16;100.00;100255.72;1664107;86;21063;-84
2021/05/03 04:02:54;;;;;;;22.98;5.87;;;;;;;16.37;100.00;100253.35;1667931;86;21211;-84
2021/05/03 04:07:59;;;;;;;17.02;5.90;;;;;;;16.94;100.00;100251.47;1667949;86;21613;-84
2021/05/03 04:13:15;;;;;;;18.35;5.75;;;;;;;17.11;100.00;100255.66;1665021;86;21135;-84
2021/05/03 04:23:47;;;;;;;23.65;6.00;;;;;;;19.78;100.00;100251.78;1596294;89;21116;-85
2021/05/03 04:26:02;;;;;;;16.95;6.40;;;;;;;20.41;100.00;100248.56;1592873;89;21184;-85
2021/05/03 04:28:28;;;;;;;17.35;5.90;;;;;;;20.59;100.00;100245.70;1596348;89;21192;-86
2021/05/03 04:30:53;;;;;;;19.73;6.65;;;;;;;20.95;89.31;100248.34;1596480;89;21271;-84
2021/05/03 04:33:19;;;;;;;24.52;6.08;;;;;;;20.42;91.22;100251.52;1596494;89;21111;-85
2021/05/03 04:35:45;;;;;;;20.23;6.50;;;;;;;20.24;97.94;100248.69;1596444;89;21061;-85
2021/05/03 04:38:11;;;;;;;27.10;7.65;;;;;;;20.68;92.12;100240.13;1596464;89;20962;-85
2021/05/03 04:40:37;;;;;;;22.10;6.87;;;;;;;21.26;89.05;100243.13;1596426;89;20973;-85
2021/05/03 04:43:03;;;;;;;22.87;6.80;;;;;;;21.82;86.94;100248.68;1597929;87;21080;-85
2021/05/03 04:45:29;;;;;;;26.40;8.08;;;;;;;22.93;90.13;100255.48;1597901;89;21283;-86
2021/05/03 04:47:55;;;;;;;30.37;7.33;;;;;;;23.25;69.20;100252.23;1597915;89;21057;-86
2021/05/03 04:50:20;;;;;;;19.77;6.35;;;;;;;24.18;70.64;100253.09;1597998;89;21650;-85
2021/05/03 04:52:46;;;;;;;30.00;7.65;;;;;;;25.26;65.85;100249.70;1598088;89;21030;-86
2021/05/03 04:55:12;;;;;;;21.65;7.30;;;;;;;25.62;57.95;100253.87;1597979;89;21124;-85
2021/05/03 04:57:38;;;;;;;26.97;7.70;;;;;;;25.24;59.19;100236.30;1597809;89;21190;-85
2021/05/03 05:00:05;;;;;;;21.68;7.03;;;;;;;24.67;60.26;100222.81;1649828;86;20965;-85
2021/05/03 05:02:31;;;;;;;27.22;7.62;;;;;;;24.62;59.97;100208.77;1669424;86;21525;-85
2021/05/03 05:04:57;;;;;;;27.98;8.95;;;;;;;24.65;57.10;100210.00;1669620;85;20946;-85
2021/05/03 05:07:23;;;;;;;22.22;6.90;;;;;;;23.45;60.76;100211.08;1669632;85;21248;-85
2021/05/03 05:09:49;;;;;;;21.68;7.30;;;;;;;23.25;61.55;100212.94;1669690;85;21281;-85
2021/05/03 05:12:15;;;;;;;21.65;7.67;;;;;;;22.55;65.99;100214.22;1669509;85;20957;-85
2021/05/03 05:14:41;;;;;;;21.80;8.03;;;;;;;21.97;69.55;100227.39;1669632;86;21008;-85
2021/05/03 05:17:07;;;;;;;28.92;8.05;;;;;;;21.76;70.98;100243.42;1646271;86;20933;-84
2021/05/03 05:19:33;;;;;;;27.13;8.20;;;;;;;21.55;72.80;100248.23;1669711;86;21155;-84
2021/05/03 05:21:59;;;;;;;24.23;8.35;;;;;;;21.09;76.31;100255.69;1669550;86;21623;-84
2021/05/03 05:24:25;;;;;;;31.48;8.35;;;;;;;20.90;79.10;100249.91;1669617;86;21118;-84
2021/05/03 05:26:51;;;;;;;38.42;8.38;;;;;;;20.79;79.22;100245.42;1669541;85;21001;-84
2021/05/03 05:29:17;;;;;;;30.50;9.40;;;;;;;20.38;87.29;100234.17;1646422;86;21135;-84
2021/05/03 05:31:43;;;;;;;27.35;8.73;;;;;;;20.40;86.34;100235.19;1669849;86;21207;-84
2021/05/03 05:34:09;;;;;;;28.05;8.85;;;;;;;20.40;86.89;100219.56;1646340;86;21171;-84
2021/05/03 05:36:35;;;;;;;32.73;9.78;;;;;;;19.94;92.84;100222.75;1669711;85;21147;-84
2021/05/03 05:39:00;;;;;;;34.90;10.08;;;;;;;20.03;92.60;100224.05;1669760;85;21008;-84
2021/05/03 05:41:27;;;;;;;36.68;10.00;;;;;;;19.89;96.29;100216.67;1681319;85;20965;-84
2021/05/03 05:43:53;;;;;;;33.65;10.35;;;;;;;20.32;91.88;100208.12;1698886;83;21664;-83
2021/05/03 05:46:19;;;;;;;32.33;9.70;;;;;;;20.04;93.25;100196.13;1677202;85;21307;-84
2021/05/03 05:48:49;;;;;;;33.40;8.93;;;;;;;19.98;95.19;100195.52;1676992;85;21223;-84
2021/05/03 05:51:15;;;;;;;38.13;10.72;;;;;;;20.06;96.35;100202.87;1676993;85;21131;-83
2021/05/03 05:53:40;;;;;;;30.35;8.85;;;;;;;20.09;100.00;100235.58;1676940;85;21229;-83
2021/05/03 05:56:07;;;;;;;29.20;9.53;;;;;;;20.26;100.00;100231.92;1649779;85;20992;-84
2021/05/03 05:58:33;;;;;;;30.52;9.18;;;;;;;20.43;95.35;100228.47;1677027;85;21449;-84
2021/05/03 06:01:04;;;;;;;29.32;9.05;;;;;;;20.05;98.63;100229.18;1676835;85;21095;-83
2021/05/03 06:03:30;;;;;;;30.82;10.03;;;;;;;20.17;98.61;100236.09;1676986;85;21203;-83
2021/05/03 06:05:59;;;;;;;30.68;9.38;;;;;;;20.38;96.11;100237.45;1698743;83;21017;-83
2021/05/03 06:08:26;;;;;;;34.40;9.78;;;;;;;20.27;95.51;100234.34;1677044;85;21088;-83
2021/05/03 06:10:53;;;;;;;36.85;9.23;;;;;;;20.09;98.19;100234.20;1676900;85;21978;-84
2021/05/03 06:13:19;;;;;;;29.18;9.50;;;;;;;20.26;95.80;100240.92;1698680;83;21600;-83
2021/05/03 06:15:45;;;;;;;31.27;9.85;;;;;;;20.24;95.77;100251.42;1676992;85;21167;-83
2021/05/03 06:18:11;;;;;;;32.25;9.25;;;;;;;20.37;95.71;100251.71;1676998;85;20928;-83
2021/05/03 06:20:38;;;;;;;32.75;9.00;;;;;;;20.29;95.84;100247.09;1676993;85;21175;-83
2021/05/03 06:23:08;;;;;;;32.50;9.43;;;;;;;20.42;95.94;100243.31;1676088;84;21207;-83
2021/05/03 06:25:34;;;;;;;32.85;9.95;;;;;;;20.34;95.71;100245.54;1676828;85;21498;-83
2021/05/03 06:28:00;;;;;;;32.10;10.03;;;;;;;20.37;96.05;100239.39;1676973;84;21115;-83
2021/05/03 06:30:27;;;;;;;33.38;10.20;;;;;;;20.73;92.28;100247.56;1698804;83;21104;-84
2021/05/03 06:32:54;;;;;;;32.45;10.45;;;;;;;21.03;89.71;100244.14;1676952;85;21175;-84
2021/05/03 06:35:21;;;;;;;34.35;10.48;;;;;;;20.81;92.82;100252.16;1698900;83;21161;-84
2021/05/03 06:37:48;;;;;;;24.95;8.98;;;;;;;20.86;92.35;100247.06;1676758;85;21234;-83
2021/05/03 06:40:15;;;;;;;35.63;9.60;;;;;;;21.27;89.15;100247.50;1676821;85;21083;-83
2021/05/03 06:42:41;;;;;;;28.32;10.38;;;;;;;21.47;86.75;100244.47;1692325;84;21188;-84
2021/05/03 06:45:09;;;;;;;36.88;10.68;;;;;;;21.81;83.62;100249.26;1669602;85;21596;-84
2021/05/03 06:47:36;;;;;;;32.17;10.72;;;;;;;22.10;84.23;100246.03;1681314;85;21234;-84
2021/05/03 06:50:06;;;;;;;36.68;10.35;;;;;;;22.03;82.55;100247.99;1669411;85;21136;-84
2021/05/03 06:52:32;;;;;;;29.27;10.28;;;;;;;22.12;86.97;100247.28;1599671;89;21693;-84
2021/05/03 06:54:58;;;;;;;38.95;10.20;;;;;;;22.53;84.49;100246.75;1596317;89;20995;-84
2021/05/03 06:57:25;;;;;;;37.00;10.15;;;;;;;22.78;79.89;100239.77;1599995;89;21134;-84
2021/05/03 06:59:51;;;;;;;26.95;10.03;;;;;;;23.20;71.91;100246.20;1599781;89;21922;-84
2021/05/03 07:02:17;;;;;;;31.55;9.80;;;;;;;22.79;75.75;100237.23;1599792;89;21066;-84
2021/05/03 07:04:43;;;;;;;30.32;9.10;;;;;;;24.09;70.34;100231.02;1599542;89;21337;-84
2021/05/03 07:07:09;;;;;;;27.52;9.73;;;;;;;24.41;72.84;100237.21;1599810;89;21089;-84
2021/05/03 07:09:34;;;;;;;31.93;10.15;;;;;;;25.27;69.43;100234.18;1578946;89;21064;-85
2021/05/03 07:12:09;;;;;;;32.23;10.55;;;;;;;26.17;57.25;100236.33;1599873;89;21277;-85
2021/05/03 07:14:36;;;;;;;37.80;11.08;;;;;;;26.22;57.01;100235.22;1599529;89;21558;-85
2021/05/03 07:17:05;;;;;;;43.45;11.75;;;;;;;25.33;57.36;100243.73;1599757;89;21556;-84
2021/05/03 07:19:33;;;;;;;35.73;11.70;;;;;;;25.07;58.85;100245.81;1599637;89;21284;-84
2021/05/03 07:22:02;;;;;;;27.42;10.45;;;;;;;25.01;59.81;100237.63;1599762;89;21203;-84
2021/05/03 07:24:28;;;;;;;27.95;9.50;;;;;;;25.04;59.08;100235.52;1599891;89;22171;-84
2021/05/03 07:26:54;;;;;;;31.00;9.90;;;;;;;24.88;57.36;100227.37;1599777;89;21197;-85
2021/05/03 07:29:20;;;;;;;33.42;10.65;;;;;;;24.62;59.99;100223.91;1599824;89;20987;-85
2021/05/03 07:31:46;;;;;;;43.05;11.12;;;;;;;24.75;59.61;100214.90;1599730;89;21344;-84
2021/05/03 07:34:12;;;;;;;38.75;10.18;;;;;;;24.82;59.26;100223.87;1599846;89;21086;-84
2021/05/03 07:36:38;;;;;;;29.95;10.28;;;;;;;24.55;60.67;100218.84;1599942;89;21202;-83
2021/05/03 07:39:06;;;;;;;28.50;10.25;;;;;;;24.81;60.95;100215.40;1599718;89;21232;-84
2021/05/03 07:41:34;;;;;;;29.20;8.88;;;;;;;24.61;59.82;100222.30;1599774;89;21106;-84
2021/05/03 07:44:00;;;;;;;23.70;7.70;;;;;;;24.59;59.85;100225.20;1562355;91;21229;-84
2021/05/03 07:46:27;;;;;;;25.08;8.63;;;;;;;25.01;58.04;100236.84;1564564;91;21288;-84
2021/05/03 07:51:26;;;;;;;30.60;8.15;;;;;;;24.90;57.00;100242.14;1546018;91;21806;-84
2021/05/03 07:53:52;;;;;;;30.68;9.28;;;;;;;24.66;57.36;100249.57;1565643;91;21635;-84
2021/05/03 07:56:19;;;;;;;25.97;7.58;;;;;;;24.10;59.70;100243.66;1565741;91;21198;-84
2021/05/03 07:58:47;;;;;;;26.35;7.80;;;;;;;24.50;59.07;100233.69;1565507;91;21210;-84
2021/05/03 08:01:14;;;;;;;26.02;7.25;;;;;;;24.30;58.04;100228.75;1565623;91;21254;-84
2021/05/03 08:03:43;;;;;;;31.20;7.33;;;;;;;23.94;60.74;100225.78;1565557;91;21375;-83
2021/05/03 08:06:13;;;;;;;28.20;6.97;;;;;;;24.03;62.51;100236.83;1565786;91;21622;-84
2021/05/03 08:08:44;;;;;;;26.15;7.25;;;;;;;24.21;63.02;100234.47;1565727;91;21322;-84
2021/05/03 08:11:12;;;;;;;25.32;6.62;;;;;;;24.47;63.57;100243.50;1565658;91;21206;-84
2021/05/03 08:13:39;;;;;;;25.40;7.40;;;;;;;24.80;62.42;100243.55;1545871;91;21241;-83
2021/05/03 08:16:09;;;;;;;25.35;6.95;;;;;;;24.93;60.39;100235.31;1565627;91;21276;-84
2021/05/03 08:18:33;;;;;;;33.53;6.92;;;;;;;25.09;58.95;100236.60;1562462;91;21202;-83
2021/05/03 08:20:59;;;;;;;24.32;6.60;;;;;;;25.18;59.22;100240.53;1565720;91;21127;-84
2021/05/03 08:23:26;;;;;;;25.70;7.00;;;;;;;25.36;58.97;100233.34;1565837;91;21093;-83
2021/05/03 08:25:54;;;;;;;33.33;7.60;;;;;;;25.31;58.00;100239.16;1545595;91;21256;-85
2021/05/03 08:28:21;;;;;;;22.75;6.67;;;;;;;25.74;58.26;100223.88;1565651;91;21217;-84
2021/05/03 08:30:49;;;;;;;20.48;6.25;;;;;;;26.42;57.67;100217.91;1565537;91;21241;-85
2021/05/03 08:33:17;;;;;;;21.27;5.20;;;;;;;27.92;52.85;100211.02;1565789;91;21176;-85
2021/05/03 08:35:43;;;;;;;23.62;4.92;;;;;;;28.81;49.99;100205.63;1565661;91;21159;-85
2021/05/03 08:38:09;;;;;;;23.50;5.03;;;;;;;29.58;47.48;100208.83;1565695;91;21242;-85
2021/05/03 08:40:36;;;;;;;27.55;5.80;;;;;;;30.40;46.51;100205.86;1582427;88;21697;-85
2021/05/03 08:43:04;;;;;;;26.75;5.72;;;;;;;30.83;46.70;100209.03;1608122;89;21195;-86
2021/05/03 08:45:33;;;;;;;18.48;5.50;;;;;;;32.19;43.12;100213.37;1602183;89;21144;-85
2021/05/03 08:53:17;;;;;;;23.83;5.55;;;;;;;34.40;35.66;100203.95;1687362;84;21177;-86
2021/05/03 08:55:44;;;;;;;17.48;4.78;;;;;;;34.25;34.56;100205.66;1687438;83;21129;-86
2021/05/03 08:58:10;;;;;;;19.70;5.47;;;;;;;34.18;35.13;100196.03;1687511;85;21090;-86
2021/05/03 09:00:37;;;;;;;27.55;5.80;;;;;;;36.03;32.33;100183.48;1687489;85;21129;-86
2021/05/03 09:03:10;;;;;;;26.75;6.37;;;;;;;34.42;35.67;100179.14;1687538;85;21883;-86
2021/05/03 09:05:37;;;;;;;22.05;6.15;;;;;;;34.38;33.46;100173.59;1687276;83;21145;-87
2021/05/03 09:08:04;;;;;;;15.98;5.50;;;;;;;35.84;33.90;100169.20;1687424;84;21205;-87
2021/05/03 09:10:31;;;;;;;18.77;6.45;;;;;;;37.25;30.69;100161.64;1687476;83;21165;-86
2021/05/03 09:13:11;;;;;;;22.22;6.22;;;;;;;35.93;31.79;100172.13;1687689;83;21133;-87
2021/05/03 09:15:37;;;;;;;23.80;5.70;;;;;;;35.61;31.00;100173.04;1687650;83;21890;-87
2021/05/03 09:18:04;;;;;;;20.40;5.80;;;;;;;36.16;31.91;100176.70;1687444;83;21221;-86
2021/05/03 09:20:31;;;;;;;19.80;5.83;;;;;;;36.12;31.61;100182.24;1687598;83;21161;-87
2021/05/03 09:25:34;;;;;;;17.62;6.15;;;;;;;35.69;31.42;100167.41;1687676;83;21173;-86
2021/05/03 09:28:20;;;;;;;26.70;6.70;;;;;;;35.55;31.54;100174.03;1687603;83;21172;-87
2021/05/03 09:30:57;;;;;;;17.20;5.40;;;;;;;36.86;29.57;100172.77;1687646;85;21200;-86
2021/05/03 09:33:35;;;;;;;19.00;6.55;;;;;;;35.26;31.99;100180.35;1672870;85;21343;-86
2021/05/03 09:36:06;;;;;;;37.50;7.08;;;;;;;36.01;30.76;100187.38;1672781;85;21406;-86
2021/05/03 09:38:41;;;;;;;27.35;6.85;;;;;;;35.12;31.26;100187.13;1672903;85;21616;-86
2021/05/03 09:41:23;;;;;;;20.92;6.47;;;;;;;34.48;32.97;100180.20;1672585;85;21270;-87
2021/05/03 09:44:07;;;;;;;15.32;5.75;;;;;;;33.62;35.00;100178.53;1676311;84;21459;-87
2021/05/03 09:46:46;;;;;;;21.90;7.40;;;;;;;34.12;34.54;100171.97;1678119;84;21176;-86
2021/05/03 09:49:16;;;;;;;23.83;6.05;;;;;;;35.02;32.54;100164.33;1679670;84;21199;-86
2021/05/03 09:51:45;;;;;;;27.60;6.30;;;;;;;33.74;34.62;100161.73;1651739;85;21198;-86
2021/05/03 09:54:28;;;;;;;21.62;6.05;;;;;;;34.32;33.89;100167.72;1651585;85;21847;-86
2021/05/03 09:57:05;;;;;;;22.77;5.95;;;;;;;33.42;34.51;100172.09;1593033;90;21273;-86
2021/05/03 09:59:45;;;;;;;26.23;6.28;;;;;;;32.91;36.11;100172.10;1593161;90;21310;-86
2021/05/03 10:02:21;;;;;;;21.52;5.85;;;;;;;31.76;36.84;100165.05;1567149;91;21684;-84
2021/05/03 10:05:02;;;;;;;33.70;7.20;;;;;;;31.72;38.36;100152.56;1608382;87;21250;-85
2021/05/03 10:07:30;;;;;;;25.75;6.20;;;;;;;31.61;38.29;100151.27;1552048;91;21127;-85
2021/05/03 10:10:17;;;;;;;18.10;6.45;;;;;;;31.28;38.41;100147.22;1586645;89;21650;-85
2021/05/03 10:12:43;;;;;;;22.58;6.60;;;;;;;31.54;39.08;100142.22;1586792;89;21218;-85
2021/05/03 10:15:12;;;;;;;23.95;6.58;;;;;;;32.47;37.44;100143.27;1586750;89;21212;-85
2021/05/03 10:17:40;;;;;;;21.17;6.03;;;;;;;32.64;36.84;100153.20;1586847;89;21183;-85
2021/05/03 10:20:09;;;;;;;20.40;5.83;;;;;;;31.74;38.23;100151.55;1586705;89;21273;-85
2021/05/03 10:22:35;;;;;;;21.75;5.90;;;;;;;31.80;37.80;100151.28;1586620;90;21212;-85
2021/05/03 10:25:06;;;;;;;20.92;6.10;;;;;;;31.30;38.20;100146.81;1586632;89;21172;-85
2021/05/03 10:27:38;;;;;;;20.75;5.92;;;;;;;30.53;40.34;100141.63;1586851;90;21251;-85
2021/05/03 10:30:15;;;;;;;25.10;6.42;;;;;;;30.41;40.90;100141.29;1578154;89;21217;-85
2021/05/03 10:32:42;;;;;;;27.50;6.42;;;;;;;30.05;42.10;100138.67;1574234;89;21602;-85
2021/05/03 10:35:30;;;;;;;24.80;6.05;;;;;;;29.77;42.75;100134.82;1573931;89;21568;-88
2021/05/03 10:37:58;;;;;;;26.37;7.30;;;;;;;29.54;42.94;100140.80;1574187;89;21543;-87
2021/05/03 10:40:35;;;;;;;21.80;7.30;;;;;;;29.48;42.69;100143.01;1574092;89;21626;-88
2021/05/03 10:43:13;;;;;;;23.10;6.55;;;;;;;29.18;43.93;100137.30;1573503;89;21162;-85
2021/05/03 10:51:10;;;;;;;23.02;6.97;;;;;;;28.69;45.16;100139.63;1532687;92;21256;-86
2021/05/03 10:53:37;;;;;;;28.45;8.15;;;;;;;28.40;45.45;100136.58;1533649;92;21922;-86
2021/05/03 10:56:09;;;;;;;25.25;7.78;;;;;;;28.16;47.20;100138.88;1547176;91;21209;-86
2021/05/03 10:58:57;;;;;;;19.57;6.62;;;;;;;27.96;48.41;100137.61;1528055;93;21748;-85
2021/05/03 11:01:23;;;;;;;26.80;7.30;;;;;;;28.01;48.24;100149.12;1507762;93;21231;-85
2021/05/03 11:04:00;;;;;;;21.50;7.37;;;;;;;27.71;49.83;100152.11;1562300;90;21027;-85
2021/05/03 11:06:41;;;;;;;23.47;7.15;;;;;;;27.83;50.52;100144.89;1590898;89;21202;-85
2021/05/03 11:09:31;;;;;;;21.93;7.55;;;;;;;27.77;50.52;100144.23;1591038;88;21225;-85
2021/05/03 11:12:12;;;;;;;29.55;7.53;;;;;;;27.76;50.20;100132.94;1561224;90;21336;-86
2021/05/03 11:15:00;;;;;;;18.00;6.62;;;;;;;27.05;53.69;100132.64;1489100;96;21338;-83
2021/05/03 11:17:25;;;;;;;30.95;7.97;;;;;;;27.31;52.84;100126.75;1439052;98;21660;-85
2021/05/03 11:22:45;;;;;;;21.85;9.00;;;;;;;26.99;54.19;100140.30;1431786;100;21729;-86
2021/05/03 11:25:24;;;;;;;20.57;8.30;;;;;;;27.13;54.04;100142.59;1431444;99;22404;-85
2021/05/03 11:30:46;;;;;;;23.60;9.03;;;;;;;27.45;54.50;100136.53;1431786;98;21245;-85
2021/05/03 11:33:16;;;;;;;27.20;9.33;;;;;;;27.22;55.54;100123.53;1434416;98;21267;-87
2021/05/03 11:36:02;;;;;;;26.65;8.90;;;;;;;27.53;53.20;100122.95;1433975;98;21229;-87
2021/05/03 11:41:19;;;;;;;25.17;9.65;;;;;;;28.06;54.04;100107.76;1431915;98;20262;-87
2021/05/03 11:46:30;;;;;;;28.35;9.75;;;;;;;28.39;51.15;100110.84;1432656;99;21320;-87
2021/05/03 11:48:56;;;;;;;29.18;10.05;;;;;;;28.15;50.75;100117.09;1420397;100;21221;-89
2021/05/03 11:51:23;;;;;;;27.73;9.23;;;;;;;27.93;51.79;100135.03;1402981;102;21936;-88
2021/05/03 11:53:50;;;;;;;28.73;8.98;;;;;;;27.92;51.75;100137.61;1423556;100;21312;-89
2021/05/03 11:56:29;;;;;;;33.20;9.20;;;;;;;27.98;51.91;100126.95;1406227;100;21251;-88
2021/05/03 11:59:00;;;;;;;27.70;8.78;;;;;;;27.85;52.71;100127.30;1446257;99;21278;-89
2021/05/03 12:01:29;;;;;;;26.77;8.13;;;;;;;27.58;52.96;100141.15;1442190;99;21286;-89